ANA2491 RJFO-RJTT
Flight info
| Callsign | ANA2491 |
|---|---|
| Flight time | 1h 14m |
| Altitude | 35000 |
| Route | FIATO Y61 KTE Y33 SHOOT Y71 XAC |
| Aircraft | A321/M-SDE3FGHIRWY/LB1 |
Departure
| Time | 2026-05-06 10:53 |
|---|---|
| Airport | Oita Airport (RJFO) |
Arrival
| Time | 2026-05-06 12:08 |
|---|---|
| Airport | Tokyo Haneda International Airport (RJTT) |
| Time | Latitude | Longitude | Altitude | Speed | Heading |
|---|---|---|---|---|---|
| 2026-05-06 10:34 | 33.47640 | 131.73344 | 28 ft | 0 kts | 270° |
| 2026-05-06 10:44 | 33.47639 | 131.73376 | 27 ft | 4 kts | 270° |
| 2026-05-06 10:44 | 33.47639 | 131.73409 | 26 ft | 4 kts | 270° |
| 2026-05-06 10:44 | 33.47639 | 131.73441 | 31 ft | 4 kts | 270° |
| 2026-05-06 10:44 | 33.47639 | 131.73470 | 30 ft | 2 kts | 270° |
| 2026-05-06 10:45 | 33.47643 | 131.73498 | 29 ft | 4 kts | 226° |
| 2026-05-06 10:45 | 33.47664 | 131.73509 | 30 ft | 4 kts | 181° |
| 2026-05-06 10:45 | 33.47675 | 131.73509 | 26 ft | 1 kts | 180° |
| 2026-05-06 10:45 | 33.47676 | 131.73509 | 26 ft | 0 kts | 180° |
| 2026-05-06 10:48 | 33.47675 | 131.73509 | 26 ft | 1 kts | 180° |
| 2026-05-06 10:48 | 33.47632 | 131.73509 | 28 ft | 10 kts | 180° |
| 2026-05-06 10:48 | 33.47561 | 131.73508 | 24 ft | 11 kts | 180° |
| 2026-05-06 10:49 | 33.47488 | 131.73507 | 23 ft | 11 kts | 181° |
| 2026-05-06 10:49 | 33.47411 | 131.73506 | 22 ft | 11 kts | 180° |
| 2026-05-06 10:49 | 33.47331 | 131.73505 | 21 ft | 12 kts | 180° |
| 2026-05-06 10:49 | 33.47247 | 131.73505 | 23 ft | 12 kts | 180° |
| 2026-05-06 10:50 | 33.47166 | 131.73504 | 20 ft | 11 kts | 180° |
| 2026-05-06 10:50 | 33.47090 | 131.73504 | 20 ft | 11 kts | 180° |
| 2026-05-06 10:50 | 33.47000 | 131.73502 | 21 ft | 13 kts | 181° |
| 2026-05-06 10:50 | 33.46911 | 131.73501 | 23 ft | 14 kts | 180° |
| 2026-05-06 10:51 | 33.46819 | 131.73501 | 24 ft | 12 kts | 180° |
| 2026-05-06 10:51 | 33.46733 | 131.73500 | 26 ft | 12 kts | 180° |
| 2026-05-06 10:51 | 33.46658 | 131.73501 | 27 ft | 10 kts | 172° |
| 2026-05-06 10:51 | 33.46617 | 131.73535 | 27 ft | 6 kts | 124° |
| 2026-05-06 10:52 | 33.46607 | 131.73581 | 27 ft | 5 kts | 97° |
| 2026-05-06 10:52 | 33.46607 | 131.73645 | 27 ft | 11 kts | 82° |
| 2026-05-06 10:52 | 33.46653 | 131.73697 | 27 ft | 9 kts | 2° |
| 2026-05-06 10:52 | 33.46730 | 131.73699 | 31 ft | 19 kts | 1° |
| 2026-05-06 10:53 | 33.47100 | 131.73702 | 24 ft | 87 kts | 0° |
| 2026-05-06 10:53 | 33.47901 | 131.73711 | 27 ft | 140 kts | 0° |
| 2026-05-06 10:53 | 33.48999 | 131.73731 | 106 ft | 172 kts | 2° |
| 2026-05-06 10:53 | 33.50181 | 131.73831 | 664 ft | 172 kts | 15° |
| 2026-05-06 10:54 | 33.51164 | 131.74643 | 1054 ft | 179 kts | 61° |
| 2026-05-06 10:54 | 33.51291 | 131.76076 | 1527 ft | 178 kts | 113° |
| 2026-05-06 10:54 | 33.50575 | 131.77255 | 2009 ft | 179 kts | 133° |
| 2026-05-06 10:54 | 33.49731 | 131.78434 | 2199 ft | 195 kts | 130° |
| 2026-05-06 10:55 | 33.48873 | 131.79806 | 2321 ft | 216 kts | 128° |
| 2026-05-06 10:55 | 33.47953 | 131.81349 | 2504 ft | 240 kts | 127° |
| 2026-05-06 10:55 | 33.46973 | 131.83034 | 3036 ft | 251 kts | 126° |
| 2026-05-06 10:55 | 33.45989 | 131.84747 | 3751 ft | 255 kts | 126° |
| 2026-05-06 10:56 | 33.44976 | 131.86523 | 4451 ft | 261 kts | 125° |
| 2026-05-06 10:56 | 33.43943 | 131.88339 | 5128 ft | 267 kts | 125° |
| 2026-05-06 10:56 | 33.42882 | 131.90202 | 5782 ft | 273 kts | 126° |
| 2026-05-06 10:56 | 33.41799 | 131.92097 | 6473 ft | 278 kts | 127° |
| 2026-05-06 10:57 | 33.40696 | 131.94018 | 7130 ft | 282 kts | 127° |
| 2026-05-06 10:57 | 33.39577 | 131.95966 | 7814 ft | 285 kts | 126° |
| 2026-05-06 10:57 | 33.38449 | 131.97932 | 8505 ft | 288 kts | 127° |
| 2026-05-06 10:57 | 33.37311 | 131.99918 | 9192 ft | 291 kts | 127° |
| 2026-05-06 10:58 | 33.36161 | 132.01929 | 9868 ft | 294 kts | 127° |
| 2026-05-06 10:58 | 33.35012 | 132.03941 | 10378 ft | 304 kts | 127° |
| 2026-05-06 10:58 | 33.33772 | 132.06096 | 10507 ft | 325 kts | 127° |
| 2026-05-06 10:58 | 33.32444 | 132.08395 | 10624 ft | 346 kts | 127° |
| 2026-05-06 10:59 | 33.31198 | 132.10939 | 10859 ft | 363 kts | 116° |
| 2026-05-06 10:59 | 33.30403 | 132.13843 | 11345 ft | 372 kts | 103° |
| 2026-05-06 10:59 | 33.30135 | 132.16943 | 11900 ft | 379 kts | 90° |
| 2026-05-06 10:59 | 33.30433 | 132.20090 | 12477 ft | 384 kts | 79° |
| 2026-05-06 11:00 | 33.30965 | 132.23233 | 13051 ft | 388 kts | 79° |
| 2026-05-06 11:00 | 33.31493 | 132.26368 | 13625 ft | 392 kts | 79° |
| 2026-05-06 11:00 | 33.32029 | 132.29580 | 14177 ft | 396 kts | 79° |
| 2026-05-06 11:00 | 33.32569 | 132.32822 | 14677 ft | 400 kts | 79° |
| 2026-05-06 11:01 | 33.33111 | 132.36094 | 15172 ft | 403 kts | 79° |
| 2026-05-06 11:01 | 33.33657 | 132.39402 | 15665 ft | 407 kts | 80° |
| 2026-05-06 11:01 | 33.34235 | 132.42732 | 16123 ft | 412 kts | 76° |
| 2026-05-06 11:01 | 33.35231 | 132.45967 | 16567 ft | 417 kts | 64° |
| 2026-05-06 11:02 | 33.36750 | 132.48941 | 17014 ft | 422 kts | 52° |
| 2026-05-06 11:02 | 33.38714 | 132.51482 | 17482 ft | 424 kts | 40° |
| 2026-05-06 11:02 | 33.41061 | 132.53625 | 17968 ft | 426 kts | 34° |
| 2026-05-06 11:02 | 33.43469 | 132.55714 | 18443 ft | 429 kts | 34° |
| 2026-05-06 11:03 | 33.45890 | 132.57828 | 18835 ft | 433 kts | 34° |
| 2026-05-06 11:03 | 33.48330 | 132.59969 | 19167 ft | 437 kts | 34° |
| 2026-05-06 11:03 | 33.50796 | 132.62137 | 19470 ft | 442 kts | 34° |
| 2026-05-06 11:03 | 33.53292 | 132.64330 | 19827 ft | 447 kts | 34° |
| 2026-05-06 11:04 | 33.55808 | 132.66540 | 20178 ft | 451 kts | 33° |
| 2026-05-06 11:04 | 33.58350 | 132.68773 | 20520 ft | 455 kts | 33° |
| 2026-05-06 11:04 | 33.60916 | 132.71028 | 20870 ft | 459 kts | 33° |
| 2026-05-06 11:04 | 33.63467 | 132.73270 | 21188 ft | 464 kts | 33° |
| 2026-05-06 11:05 | 33.66081 | 132.75568 | 21553 ft | 468 kts | 33° |
| 2026-05-06 11:05 | 33.68718 | 132.77889 | 21897 ft | 472 kts | 33° |
| 2026-05-06 11:05 | 33.71378 | 132.80233 | 22229 ft | 476 kts | 33° |
| 2026-05-06 11:05 | 33.74059 | 132.82598 | 22575 ft | 480 kts | 33° |
| 2026-05-06 11:06 | 33.76762 | 132.84986 | 22875 ft | 484 kts | 33° |
| 2026-05-06 11:06 | 33.79486 | 132.87393 | 23185 ft | 489 kts | 33° |
| 2026-05-06 11:06 | 33.82198 | 132.89794 | 23555 ft | 492 kts | 33° |
| 2026-05-06 11:06 | 33.84961 | 132.92244 | 23879 ft | 495 kts | 33° |
| 2026-05-06 11:07 | 33.87742 | 132.94710 | 24144 ft | 499 kts | 33° |
| 2026-05-06 11:07 | 33.90548 | 132.97196 | 24427 ft | 503 kts | 33° |
| 2026-05-06 11:07 | 33.93374 | 132.99697 | 24702 ft | 506 kts | 32° |
| 2026-05-06 11:07 | 33.96156 | 133.02313 | 25018 ft | 510 kts | 39° |
| 2026-05-06 11:08 | 33.98627 | 133.05418 | 25217 ft | 518 kts | 50° |
| 2026-05-06 11:08 | 34.00687 | 133.09005 | 25404 ft | 523 kts | 60° |
| 2026-05-06 11:08 | 34.02265 | 133.12967 | 25628 ft | 526 kts | 71° |
| 2026-05-06 11:08 | 34.03321 | 133.17123 | 25850 ft | 526 kts | 78° |
| 2026-05-06 11:09 | 34.04236 | 133.21410 | 26105 ft | 530 kts | 78° |
| 2026-05-06 11:09 | 34.05155 | 133.25718 | 26354 ft | 532 kts | 79° |
| 2026-05-06 11:09 | 34.06078 | 133.30056 | 26560 ft | 536 kts | 79° |
| 2026-05-06 11:09 | 34.07009 | 133.34423 | 26788 ft | 539 kts | 79° |
| 2026-05-06 11:10 | 34.07946 | 133.38818 | 27017 ft | 542 kts | 79° |
| 2026-05-06 11:10 | 34.08886 | 133.43235 | 27241 ft | 545 kts | 79° |
| 2026-05-06 11:10 | 34.09831 | 133.47674 | 27530 ft | 546 kts | 79° |
| 2026-05-06 11:10 | 34.10774 | 133.52117 | 27796 ft | 548 kts | 79° |
| 2026-05-06 11:11 | 34.11721 | 133.56593 | 27975 ft | 552 kts | 79° |
| 2026-05-06 11:11 | 34.12655 | 133.61031 | 28176 ft | 555 kts | 79° |
| 2026-05-06 11:11 | 34.13605 | 133.65558 | 28408 ft | 556 kts | 79° |
| 2026-05-06 11:11 | 34.14553 | 133.70077 | 28795 ft | 555 kts | 80° |
| 2026-05-06 11:12 | 34.15503 | 133.74601 | 29072 ft | 557 kts | 80° |
| 2026-05-06 11:12 | 34.16450 | 133.79125 | 29398 ft | 556 kts | 80° |
| 2026-05-06 11:12 | 34.17394 | 133.83655 | 29703 ft | 556 kts | 80° |
| 2026-05-06 11:12 | 34.18336 | 133.88172 | 30134 ft | 553 kts | 80° |
| 2026-05-06 11:13 | 34.19276 | 133.92663 | 30498 ft | 551 kts | 80° |
| 2026-05-06 11:13 | 34.20195 | 133.97080 | 30793 ft | 549 kts | 81° |
| 2026-05-06 11:13 | 34.21120 | 134.01556 | 31056 ft | 549 kts | 81° |
| 2026-05-06 11:13 | 34.22040 | 134.06037 | 31315 ft | 548 kts | 80° |
| 2026-05-06 11:14 | 34.22945 | 134.10507 | 31624 ft | 548 kts | 81° |
| 2026-05-06 11:14 | 34.23843 | 134.14994 | 31827 ft | 550 kts | 81° |
| 2026-05-06 11:14 | 34.24739 | 134.19488 | 32070 ft | 551 kts | 81° |
| 2026-05-06 11:14 | 34.25634 | 134.23987 | 32323 ft | 550 kts | 81° |
| 2026-05-06 11:15 | 34.26529 | 134.28483 | 32665 ft | 549 kts | 81° |
| 2026-05-06 11:15 | 34.27421 | 134.32956 | 32997 ft | 547 kts | 81° |
| 2026-05-06 11:15 | 34.28302 | 134.37365 | 33286 ft | 547 kts | 81° |
| 2026-05-06 11:15 | 34.29200 | 134.41854 | 33428 ft | 551 kts | 81° |
| 2026-05-06 11:16 | 34.30097 | 134.46354 | 33668 ft | 550 kts | 81° |
| 2026-05-06 11:16 | 34.30990 | 134.50850 | 33969 ft | 549 kts | 81° |
| 2026-05-06 11:16 | 34.31877 | 134.55340 | 34238 ft | 549 kts | 81° |
| 2026-05-06 11:16 | 34.32757 | 134.59828 | 34464 ft | 549 kts | 81° |
| 2026-05-06 11:17 | 34.33635 | 134.64320 | 34676 ft | 548 kts | 81° |
| 2026-05-06 11:17 | 34.34514 | 134.68802 | 34902 ft | 548 kts | 81° |
| 2026-05-06 11:17 | 34.35397 | 134.73289 | 35087 ft | 549 kts | 81° |
| 2026-05-06 11:18 | 34.37150 | 134.82221 | 35205 ft | 548 kts | 81° |
| 2026-05-06 11:18 | 34.38872 | 134.91199 | 35195 ft | 547 kts | 82° |
| 2026-05-06 11:19 | 34.40360 | 135.00235 | 35203 ft | 548 kts | 84° |
| 2026-05-06 11:19 | 34.41737 | 135.09290 | 35217 ft | 546 kts | 84° |
| 2026-05-06 11:20 | 34.43135 | 135.18271 | 35199 ft | 546 kts | 83° |
| 2026-05-06 11:20 | 34.44594 | 135.27287 | 35219 ft | 545 kts | 83° |
| 2026-05-06 11:21 | 34.46051 | 135.36296 | 35214 ft | 545 kts | 83° |
| 2026-05-06 11:21 | 34.47484 | 135.45300 | 35216 ft | 544 kts | 83° |
| 2026-05-06 11:22 | 34.48911 | 135.54315 | 35217 ft | 545 kts | 83° |
| 2026-05-06 11:22 | 34.50321 | 135.63280 | 35217 ft | 545 kts | 84° |
| 2026-05-06 11:23 | 34.51730 | 135.72309 | 35209 ft | 545 kts | 84° |
| 2026-05-06 11:23 | 34.53128 | 135.81341 | 35184 ft | 545 kts | 83° |
| 2026-05-06 11:24 | 34.54531 | 135.90370 | 35190 ft | 545 kts | 83° |
| 2026-05-06 11:24 | 34.55924 | 135.99352 | 35185 ft | 545 kts | 83° |
| 2026-05-06 11:25 | 34.57304 | 136.08387 | 35194 ft | 545 kts | 83° |
| 2026-05-06 11:25 | 34.58676 | 136.17434 | 35199 ft | 545 kts | 83° |
| 2026-05-06 11:26 | 34.60056 | 136.26486 | 35203 ft | 546 kts | 83° |
| 2026-05-06 11:26 | 34.61446 | 136.35544 | 35216 ft | 546 kts | 83° |
| 2026-05-06 11:27 | 34.62826 | 136.44550 | 35202 ft | 546 kts | 83° |
| 2026-05-06 11:27 | 34.64199 | 136.53613 | 35215 ft | 546 kts | 83° |
| 2026-05-06 11:28 | 34.65556 | 136.62683 | 35215 ft | 546 kts | 83° |
| 2026-05-06 11:28 | 34.66914 | 136.71763 | 35216 ft | 546 kts | 83° |
| 2026-05-06 11:29 | 34.68263 | 136.80850 | 35224 ft | 547 kts | 83° |
| 2026-05-06 11:29 | 34.69596 | 136.89880 | 35213 ft | 547 kts | 83° |
| 2026-05-06 11:30 | 34.70518 | 136.99022 | 35214 ft | 541 kts | 95° |
| 2026-05-06 11:30 | 34.70624 | 137.08164 | 35197 ft | 541 kts | 94° |
| 2026-05-06 11:31 | 34.70736 | 137.17313 | 35212 ft | 542 kts | 94° |
| 2026-05-06 11:31 | 34.70848 | 137.26413 | 35225 ft | 542 kts | 94° |
| 2026-05-06 11:32 | 34.70951 | 137.35582 | 35232 ft | 542 kts | 94° |
| 2026-05-06 11:32 | 34.71045 | 137.44744 | 35239 ft | 542 kts | 94° |
| 2026-05-06 11:33 | 34.71118 | 137.53903 | 35235 ft | 542 kts | 94° |
| 2026-05-06 11:33 | 34.71151 | 137.58463 | 35556 ft | 535 kts | 94° |
| 2026-05-06 11:33 | 34.71186 | 137.62889 | 35544 ft | 529 kts | 94° |
| 2026-05-06 11:34 | 34.71256 | 137.71938 | 35258 ft | 541 kts | 94° |
| 2026-05-06 11:34 | 34.71321 | 137.80981 | 35194 ft | 534 kts | 95° |
| 2026-05-06 11:35 | 34.71374 | 137.90019 | 35171 ft | 536 kts | 95° |
| 2026-05-06 11:35 | 34.71425 | 137.99078 | 35160 ft | 535 kts | 95° |
| 2026-05-06 11:36 | 34.71469 | 138.08061 | 35086 ft | 536 kts | 95° |
| 2026-05-06 11:36 | 34.71487 | 138.12593 | 34843 ft | 536 kts | 95° |
| 2026-05-06 11:36 | 34.71505 | 138.17120 | 34602 ft | 536 kts | 95° |
| 2026-05-06 11:36 | 34.71520 | 138.21654 | 33848 ft | 540 kts | 95° |
| 2026-05-06 11:37 | 34.71526 | 138.26274 | 32685 ft | 551 kts | 95° |
| 2026-05-06 11:37 | 34.71533 | 138.30947 | 31727 ft | 556 kts | 95° |
| 2026-05-06 11:37 | 34.71540 | 138.35679 | 30677 ft | 563 kts | 95° |
| 2026-05-06 11:37 | 34.71550 | 138.40440 | 29699 ft | 564 kts | 95° |
| 2026-05-06 11:38 | 34.71566 | 138.45120 | 29112 ft | 555 kts | 95° |
| 2026-05-06 11:38 | 34.71583 | 138.49775 | 28244 ft | 549 kts | 95° |
| 2026-05-06 11:38 | 34.71591 | 138.54376 | 27562 ft | 540 kts | 95° |
| 2026-05-06 11:38 | 34.71595 | 138.58907 | 26858 ft | 533 kts | 95° |
| 2026-05-06 11:39 | 34.71594 | 138.63374 | 26170 ft | 525 kts | 95° |
| 2026-05-06 11:39 | 34.71589 | 138.67788 | 25493 ft | 519 kts | 95° |
| 2026-05-06 11:39 | 34.71583 | 138.72150 | 24820 ft | 513 kts | 95° |
| 2026-05-06 11:39 | 34.71575 | 138.76456 | 24170 ft | 506 kts | 95° |
| 2026-05-06 11:40 | 34.71564 | 138.80644 | 23598 ft | 498 kts | 95° |
| 2026-05-06 11:40 | 34.71554 | 138.84811 | 23034 ft | 488 kts | 94° |
| 2026-05-06 11:40 | 34.71542 | 138.88894 | 22528 ft | 478 kts | 94° |
| 2026-05-06 11:40 | 34.71528 | 138.92897 | 22036 ft | 470 kts | 94° |
| 2026-05-06 11:41 | 34.71512 | 138.96843 | 21571 ft | 465 kts | 94° |
| 2026-05-06 11:41 | 34.71493 | 139.00754 | 21104 ft | 461 kts | 94° |
| 2026-05-06 11:41 | 34.71472 | 139.04632 | 20639 ft | 456 kts | 94° |
| 2026-05-06 11:41 | 34.71412 | 139.08457 | 20285 ft | 451 kts | 94° |
| 2026-05-06 11:42 | 34.71381 | 139.12270 | 19694 ft | 451 kts | 94° |
| 2026-05-06 11:42 | 34.71366 | 139.16055 | 19244 ft | 446 kts | 93° |
| 2026-05-06 11:42 | 34.71358 | 139.19758 | 18770 ft | 442 kts | 93° |
| 2026-05-06 11:42 | 34.71349 | 139.23480 | 18266 ft | 439 kts | 93° |
| 2026-05-06 11:43 | 34.71334 | 139.27171 | 17760 ft | 434 kts | 93° |
| 2026-05-06 11:43 | 34.71312 | 139.30819 | 17278 ft | 430 kts | 93° |
| 2026-05-06 11:43 | 34.71287 | 139.34430 | 16775 ft | 425 kts | 93° |
| 2026-05-06 11:44 | 34.71778 | 139.41521 | 15815 ft | 422 kts | 75° |
| 2026-05-06 11:44 | 34.72823 | 139.44843 | 15358 ft | 419 kts | 61° |
| 2026-05-06 11:44 | 34.74209 | 139.47845 | 15174 ft | 408 kts | 59° |
| 2026-05-06 11:44 | 34.75596 | 139.50843 | 14597 ft | 409 kts | 60° |
| 2026-05-06 11:45 | 34.76986 | 139.53888 | 14082 ft | 409 kts | 60° |
| 2026-05-06 11:45 | 34.78334 | 139.56866 | 13960 ft | 395 kts | 60° |
| 2026-05-06 11:45 | 34.79633 | 139.59743 | 13823 ft | 381 kts | 60° |
| 2026-05-06 11:45 | 34.80875 | 139.62488 | 13676 ft | 358 kts | 60° |
| 2026-05-06 11:46 | 34.82037 | 139.65048 | 13537 ft | 334 kts | 60° |
| 2026-05-06 11:46 | 34.83208 | 139.67402 | 13130 ft | 318 kts | 49° |
| 2026-05-06 11:46 | 34.84748 | 139.69268 | 13076 ft | 311 kts | 33° |
| 2026-05-06 11:46 | 34.86549 | 139.70568 | 13074 ft | 302 kts | 18° |
| 2026-05-06 11:47 | 34.88521 | 139.71408 | 13065 ft | 301 kts | 14° |
| 2026-05-06 11:47 | 34.90514 | 139.72211 | 13064 ft | 301 kts | 14° |
| 2026-05-06 11:47 | 34.92505 | 139.73020 | 13063 ft | 302 kts | 14° |
| 2026-05-06 11:47 | 34.94493 | 139.73833 | 13063 ft | 302 kts | 14° |
| 2026-05-06 11:48 | 34.96485 | 139.74648 | 13062 ft | 302 kts | 14° |
| 2026-05-06 11:48 | 34.98413 | 139.75675 | 13061 ft | 306 kts | 28° |
| 2026-05-06 11:48 | 35.00105 | 139.77271 | 12873 ft | 309 kts | 42° |
| 2026-05-06 11:48 | 35.01609 | 139.79083 | 12672 ft | 308 kts | 42° |
| 2026-05-06 11:49 | 35.03133 | 139.80912 | 12473 ft | 307 kts | 42° |
| 2026-05-06 11:49 | 35.04655 | 139.82729 | 12273 ft | 306 kts | 42° |
| 2026-05-06 11:49 | 35.06174 | 139.84539 | 12070 ft | 305 kts | 42° |
| 2026-05-06 11:49 | 35.07685 | 139.86340 | 11819 ft | 303 kts | 42° |
| 2026-05-06 11:50 | 35.09187 | 139.88132 | 11570 ft | 301 kts | 42° |
| 2026-05-06 11:50 | 35.10684 | 139.89918 | 11328 ft | 300 kts | 42° |
| 2026-05-06 11:50 | 35.12174 | 139.91695 | 11085 ft | 299 kts | 43° |
| 2026-05-06 11:50 | 35.13657 | 139.93466 | 10840 ft | 297 kts | 43° |
| 2026-05-06 11:51 | 35.15111 | 139.95206 | 10613 ft | 296 kts | 43° |
| 2026-05-06 11:51 | 35.16578 | 139.96965 | 10381 ft | 295 kts | 43° |
| 2026-05-06 11:51 | 35.18046 | 139.98726 | 10147 ft | 296 kts | 42° |
| 2026-05-06 11:51 | 35.19514 | 140.00486 | 9943 ft | 295 kts | 42° |
| 2026-05-06 11:52 | 35.20982 | 140.02244 | 9812 ft | 295 kts | 42° |
| 2026-05-06 11:52 | 35.22450 | 140.04004 | 9684 ft | 295 kts | 42° |
| 2026-05-06 11:52 | 35.23913 | 140.05760 | 9546 ft | 295 kts | 42° |
| 2026-05-06 11:52 | 35.25371 | 140.07516 | 9428 ft | 294 kts | 42° |
| 2026-05-06 11:53 | 35.26825 | 140.09267 | 9291 ft | 293 kts | 42° |
| 2026-05-06 11:53 | 35.28276 | 140.11013 | 9163 ft | 292 kts | 42° |
| 2026-05-06 11:53 | 35.29704 | 140.12728 | 9034 ft | 291 kts | 42° |
| 2026-05-06 11:53 | 35.31144 | 140.14460 | 8916 ft | 290 kts | 42° |
| 2026-05-06 11:54 | 35.32582 | 140.16193 | 8783 ft | 290 kts | 43° |
| 2026-05-06 11:54 | 35.34019 | 140.17925 | 8655 ft | 289 kts | 42° |
| 2026-05-06 11:54 | 35.35588 | 140.19439 | 8478 ft | 285 kts | 28° |
| 2026-05-06 11:54 | 35.37356 | 140.20493 | 8119 ft | 281 kts | 15° |
| 2026-05-06 11:55 | 35.39231 | 140.21058 | 7866 ft | 273 kts | 3° |
| 2026-05-06 11:55 | 35.41111 | 140.21155 | 7700 ft | 270 kts | 352° |
| 2026-05-06 11:55 | 35.42932 | 140.20843 | 7515 ft | 267 kts | 345° |
| 2026-05-06 11:55 | 35.44760 | 140.20441 | 7331 ft | 267 kts | 345° |
| 2026-05-06 11:56 | 35.46585 | 140.20044 | 7145 ft | 266 kts | 346° |
| 2026-05-06 11:56 | 35.48409 | 140.19648 | 6957 ft | 266 kts | 346° |
| 2026-05-06 11:56 | 35.50233 | 140.19248 | 6766 ft | 266 kts | 346° |
| 2026-05-06 11:56 | 35.52053 | 140.18850 | 6584 ft | 266 kts | 346° |
| 2026-05-06 11:57 | 35.53872 | 140.18455 | 6384 ft | 265 kts | 347° |
| 2026-05-06 11:57 | 35.55690 | 140.18060 | 6196 ft | 265 kts | 347° |
| 2026-05-06 11:57 | 35.57504 | 140.17665 | 6012 ft | 265 kts | 347° |
| 2026-05-06 11:57 | 35.59291 | 140.17277 | 5825 ft | 264 kts | 347° |
| 2026-05-06 11:58 | 35.61098 | 140.16883 | 5640 ft | 263 kts | 347° |
| 2026-05-06 11:58 | 35.62903 | 140.16488 | 5457 ft | 263 kts | 347° |
| 2026-05-06 11:58 | 35.64698 | 140.16094 | 5270 ft | 261 kts | 347° |
| 2026-05-06 11:58 | 35.66478 | 140.15682 | 5108 ft | 259 kts | 342° |
| 2026-05-06 11:59 | 35.68177 | 140.14986 | 5011 ft | 256 kts | 332° |
| 2026-05-06 11:59 | 35.69793 | 140.14068 | 5018 ft | 256 kts | 332° |
| 2026-05-06 11:59 | 35.71411 | 140.13151 | 5022 ft | 256 kts | 332° |
| 2026-05-06 11:59 | 35.73013 | 140.12250 | 5020 ft | 256 kts | 332° |
| 2026-05-06 12:00 | 35.74634 | 140.11340 | 5016 ft | 256 kts | 332° |
| 2026-05-06 12:00 | 35.76254 | 140.10428 | 5018 ft | 256 kts | 332° |
| 2026-05-06 12:00 | 35.77872 | 140.09512 | 5020 ft | 256 kts | 332° |
| 2026-05-06 12:00 | 35.79468 | 140.08604 | 5020 ft | 250 kts | 329° |
| 2026-05-06 12:01 | 35.80812 | 140.07330 | 5015 ft | 242 kts | 306° |
| 2026-05-06 12:01 | 35.81701 | 140.05599 | 5024 ft | 237 kts | 288° |
| 2026-05-06 12:01 | 35.82111 | 140.03664 | 5025 ft | 232 kts | 271° |
| 2026-05-06 12:01 | 35.82035 | 140.01703 | 5021 ft | 229 kts | 255° |
| 2026-05-06 12:02 | 35.81509 | 139.99900 | 5019 ft | 226 kts | 239° |
| 2026-05-06 12:02 | 35.80575 | 139.98361 | 5022 ft | 225 kts | 223° |
| 2026-05-06 12:02 | 35.79344 | 139.97192 | 5023 ft | 225 kts | 215° |
| 2026-05-06 12:02 | 35.78060 | 139.96084 | 4979 ft | 226 kts | 215° |
| 2026-05-06 12:03 | 35.76778 | 139.94975 | 4747 ft | 224 kts | 215° |
| 2026-05-06 12:03 | 35.75506 | 139.93875 | 4463 ft | 223 kts | 215° |
| 2026-05-06 12:03 | 35.74240 | 139.92782 | 4169 ft | 222 kts | 215° |
| 2026-05-06 12:03 | 35.72978 | 139.91692 | 3879 ft | 221 kts | 215° |
| 2026-05-06 12:04 | 35.71723 | 139.90608 | 3579 ft | 220 kts | 215° |
| 2026-05-06 12:04 | 35.70489 | 139.89543 | 3306 ft | 219 kts | 215° |
| 2026-05-06 12:04 | 35.69242 | 139.88468 | 3015 ft | 219 kts | 214° |
| 2026-05-06 12:04 | 35.68007 | 139.87403 | 2734 ft | 218 kts | 214° |
| 2026-05-06 12:05 | 35.66769 | 139.86336 | 2469 ft | 214 kts | 214° |
| 2026-05-06 12:05 | 35.65611 | 139.85338 | 2174 ft | 190 kts | 214° |
| 2026-05-06 12:05 | 35.64599 | 139.84466 | 1948 ft | 166 kts | 214° |
| 2026-05-06 12:05 | 35.63703 | 139.83694 | 1726 ft | 150 kts | 213° |
| 2026-05-06 12:06 | 35.62869 | 139.82977 | 1520 ft | 143 kts | 213° |
| 2026-05-06 12:06 | 35.62074 | 139.82293 | 1334 ft | 140 kts | 213° |
| 2026-05-06 12:06 | 35.61278 | 139.81608 | 1148 ft | 139 kts | 213° |
| 2026-05-06 12:06 | 35.60487 | 139.80928 | 969 ft | 139 kts | 213° |
| 2026-05-06 12:07 | 35.59693 | 139.80245 | 769 ft | 140 kts | 213° |
| 2026-05-06 12:07 | 35.58899 | 139.79556 | 634 ft | 139 kts | 214° |
| 2026-05-06 12:07 | 35.58114 | 139.78859 | 454 ft | 138 kts | 212° |
| 2026-05-06 12:07 | 35.57322 | 139.78191 | 235 ft | 138 kts | 213° |
| 2026-05-06 12:08 | 35.56530 | 139.77514 | 67 ft | 139 kts | 214° |
| 2026-05-06 12:08 | 35.55818 | 139.76914 | 27 ft | 94 kts | 215° |
| 2026-05-06 12:08 | 35.55479 | 139.76645 | 26 ft | 41 kts | 198° |
| 2026-05-06 12:08 | 35.55328 | 139.76622 | 22 ft | 16 kts | 179° |
| 2026-05-06 12:09 | 35.55288 | 139.76714 | 23 ft | 13 kts | 65° |
| 2026-05-06 12:09 | 35.55344 | 139.76777 | 24 ft | 10 kts | 36° |
| 2026-05-06 12:09 | 35.55397 | 139.76823 | 24 ft | 0 kts | 35° |
| 2026-05-06 12:09 | 35.55409 | 139.76834 | 24 ft | 5 kts | 35° |
| 2026-05-06 12:10 | 35.55447 | 139.76866 | 24 ft | 9 kts | 34° |
| 2026-05-06 12:10 | 35.55500 | 139.76911 | 26 ft | 12 kts | 35° |
| 2026-05-06 12:10 | 35.55579 | 139.76978 | 24 ft | 14 kts | 34° |
| 2026-05-06 12:10 | 35.55656 | 139.77044 | 25 ft | 13 kts | 35° |
| 2026-05-06 12:11 | 35.55719 | 139.77098 | 30 ft | 9 kts | 35° |
| 2026-05-06 12:11 | 35.55784 | 139.77154 | 26 ft | 17 kts | 35° |
| 2026-05-06 12:11 | 35.55883 | 139.77241 | 27 ft | 16 kts | 34° |
| 2026-05-06 12:11 | 35.55949 | 139.77338 | 25 ft | 14 kts | 59° |
| 2026-05-06 12:12 | 35.56004 | 139.77453 | 23 ft | 18 kts | 59° |
| 2026-05-06 12:12 | 35.56076 | 139.77604 | 24 ft | 21 kts | 60° |
| 2026-05-06 12:12 | 35.56145 | 139.77752 | 25 ft | 19 kts | 59° |
| 2026-05-06 12:12 | 35.56209 | 139.77885 | 27 ft | 18 kts | 59° |
| 2026-05-06 12:13 | 35.56269 | 139.78014 | 29 ft | 17 kts | 60° |
| 2026-05-06 12:13 | 35.56325 | 139.78134 | 26 ft | 16 kts | 60° |
| 2026-05-06 12:13 | 35.56373 | 139.78235 | 27 ft | 13 kts | 59° |
| 2026-05-06 12:13 | 35.56416 | 139.78325 | 28 ft | 12 kts | 59° |
| 2026-05-06 12:14 | 35.56401 | 139.78406 | 25 ft | 10 kts | 142° |
| 2026-05-06 12:14 | 35.56339 | 139.78450 | 27 ft | 13 kts | 149° |
| 2026-05-06 12:14 | 35.56247 | 139.78516 | 26 ft | 16 kts | 149° |
| 2026-05-06 12:14 | 35.56149 | 139.78585 | 25 ft | 17 kts | 150° |
| 2026-05-06 12:15 | 35.56045 | 139.78659 | 24 ft | 19 kts | 150° |
| 2026-05-06 12:15 | 35.55957 | 139.78721 | 23 ft | 23 kts | 150° |
| 2026-05-06 12:15 | 35.55777 | 139.78848 | 24 ft | 22 kts | 150° |
| 2026-05-06 12:15 | 35.55647 | 139.78940 | 28 ft | 21 kts | 150° |
| 2026-05-06 12:16 | 35.55529 | 139.79025 | 27 ft | 15 kts | 149° |
| 2026-05-06 12:16 | 35.55443 | 139.79020 | 27 ft | 13 kts | 226° |
| 2026-05-06 12:16 | 35.55412 | 139.78962 | 27 ft | 12 kts | 238° |
| 2026-05-06 12:16 | 35.55341 | 139.78876 | 27 ft | 11 kts | 238° |
| 2026-05-06 12:17 | 35.55325 | 139.78844 | 27 ft | 3 kts | 239° |
| 2026-05-06 12:17 | 35.55322 | 139.78837 | 28 ft | 0 kts | 240° |